Time;durP1;ratioP1;P1;durP2;ratioP2;P2;SDS_P1;SDS_P2;PMS_P1;PMS_P2;Temp;Humidity;BMP_temperature;BMP_pressure;BME280_temperature;BME280_humidity;BME280_pressure;Samples;Min_cycle;Max_cycle;Signal;HPM_P1;HPM_P2
2022/04/26 03:36:12;;;;;;;;;;;10.70;75.90;;;9.69;nan;95944.47;4209572;33;20148;-86
2022/04/26 03:38:43;;;;;;;;;;;10.70;76.00;;;9.69;nan;95958.13;4210205;33;19903;-86
2022/04/26 03:41:12;;;;;;;;;;;10.70;75.90;;;9.70;nan;95965.22;4210115;33;20346;-87
2022/04/26 03:43:41;;;;;;;;;;;10.70;75.80;;;9.70;nan;95965.22;4210145;33;20308;-86
2022/04/26 03:46:10;;;;;;;;;;;10.70;75.70;;;9.71;nan;95966.88;4209590;33;19909;-85
2022/04/26 03:48:38;;;;;;;;;;;10.80;75.50;;;9.73;nan;95964.69;4210070;33;20002;-86
2022/04/26 03:51:07;;;;;;;;;;;10.80;75.40;;;9.76;nan;95964.13;4233745;33;20122;-86
2022/04/26 03:53:37;;;;;;;;;;;10.80;75.20;;;9.78;nan;95978.34;4210016;33;19903;-86
2022/04/26 03:56:05;;;;;;;;;;;10.80;75.10;;;9.79;nan;95969.06;4232691;33;19909;-86
2022/04/26 03:58:34;;;;;;;;;;;10.80;75.00;;;9.80;nan;95967.16;4261862;33;20230;-86
2022/04/26 04:01:02;;;;;;;;;;;10.90;75.00;;;9.83;nan;95969.34;4242622;33;20057;-86
2022/04/26 04:03:31;;;;;;;;;;;10.90;75.70;;;9.86;nan;95973.47;4266701;33;20156;-86
2022/04/26 04:05:59;;;;;;;;;;;10.90;74.80;;;9.87;nan;95975.09;4290413;33;20108;-86
2022/04/26 04:08:28;;;;;;;;;;;10.90;74.70;;;9.90;nan;95971.81;4242853;33;19901;-86
2022/04/26 04:10:58;;;;;;;;;;;10.90;74.60;;;9.93;nan;95980.31;4242824;33;20247;-86
2022/04/26 04:13:28;;;;;;;;;;;11.00;74.80;;;9.96;nan;95984.41;4266601;33;19908;-86
2022/04/26 04:15:57;;;;;;;;;;;11.00;74.80;;;9.98;nan;95976.75;4242431;33;19916;-86
2022/04/26 04:21:11;;;;;;;;;;;11.00;74.90;;;10.05;nan;95988.22;4242714;33;19909;-86
2022/04/26 04:23:40;;;;;;;;;;;11.10;75.30;;;10.07;nan;95991.53;4266552;33;19991;-86
2022/04/26 04:26:10;;;;;;;;;;;11.10;75.20;;;10.09;nan;95994.81;4241998;33;19909;-86
2022/04/26 04:28:38;;;;;;;;;;;11.20;75.40;;;10.12;nan;95988.81;4242726;33;20598;-86
2022/04/26 04:31:07;;;;;;;;;;;11.20;75.30;;;10.16;nan;95993.69;4242718;33;20156;-86
2022/04/26 04:33:35;;;;;;;;;;;11.20;75.50;;;10.19;nan;95995.91;4242879;33;20090;-86
2022/04/26 04:36:04;;;;;;;;;;;11.20;75.20;;;10.21;nan;96001.91;4214169;33;19902;-86
2022/04/26 04:38:33;;;;;;;;;;;11.30;74.90;;;10.23;nan;95994.28;4214374;33;20173;-86
2022/04/26 04:41:02;;;;;;;;;;;11.30;75.00;;;10.25;nan;95992.09;4214384;33;19909;-86
2022/04/26 04:43:32;;;;;;;;;;;11.30;74.80;;;10.26;nan;95994.53;4214229;33;19990;-87
2022/04/26 04:46:00;;;;;;;;;;;11.30;75.00;;;10.27;nan;95998.06;4213821;33;20043;-86
2022/04/26 04:48:29;;;;;;;;;;;11.30;75.10;;;10.28;nan;95991.50;4214010;33;20233;-86
2022/04/26 04:50:58;;;;;;;;;;;11.30;75.10;;;10.28;nan;96003.28;4237680;33;20155;-87
2022/04/26 04:53:27;;;;;;;;;;;11.30;75.20;;;10.27;nan;96000.81;4230008;33;19901;-86
2022/04/26 04:55:55;;;;;;;;;;;11.30;75.10;;;10.27;nan;96004.38;4242151;33;20226;-86
2022/04/26 04:58:25;;;;;;;;;;;11.30;75.20;;;10.29;nan;96006.84;4241910;33;20142;-86
2022/04/26 05:00:55;;;;;;;;;;;11.30;75.10;;;10.28;nan;96005.19;4242154;33;20118;-86
2022/04/26 05:03:25;;;;;;;;;;;11.40;75.00;;;10.30;nan;96005.75;4241934;33;19902;-86
2022/04/26 05:05:53;;;;;;;;;;;11.40;74.90;;;10.33;nan;96010.69;4241821;33;19902;-86
2022/04/26 05:08:22;;;;;;;;;;;11.40;74.80;;;10.35;nan;96008.50;4265811;33;19901;-88
2022/04/26 05:10:50;;;;;;;;;;;11.40;74.60;;;10.38;nan;96010.72;4242092;33;19901;-87
2022/04/26 05:13:19;;;;;;;;;;;11.40;74.70;;;10.42;nan;96011.78;4266776;33;19901;-87
2022/04/26 05:15:48;;;;;;;;;;;11.50;74.70;;;10.46;nan;96008.50;4243282;33;19902;-86
2022/04/26 05:18:18;;;;;;;;;;;11.50;74.70;;;10.54;nan;96005.22;4268001;33;20120;-86
2022/04/26 05:20:46;;;;;;;;;;;11.60;74.40;;;10.64;nan;96012.59;4293614;33;19909;-86
2022/04/26 05:26:01;;;;;;;;;;;11.70;74.00;;;10.84;nan;96017.22;4267900;33;19902;-85
2022/04/26 05:28:31;;;;;;;;;;;11.80;73.80;;;10.93;nan;96018.28;4292166;33;20313;-86
2022/04/26 05:31:00;;;;;;;;;;;11.90;73.60;;;10.98;nan;96020.19;4268404;33;20320;-86
2022/04/26 05:33:30;;;;;;;;;;;11.90;73.50;;;11.02;nan;96024.03;4244413;33;20136;-86
2022/04/26 05:35:58;;;;;;;;;;;12.00;73.40;;;11.04;nan;96030.88;4268149;33;19930;-86
2022/04/26 05:38:27;;;;;;;;;;;12.00;73.30;;;11.07;nan;96017.72;4244631;33;20251;-86
2022/04/26 05:40:56;;;;;;;;;;;12.10;73.30;;;11.10;nan;96028.13;4268477;33;20172;-86
2022/04/26 05:43:24;;;;;;;;;;;12.10;73.30;;;11.11;nan;96029.78;4268459;33;20037;-87
2022/04/26 05:45:53;;;;;;;;;;;12.10;73.10;;;11.10;nan;96028.13;4244466;33;19905;-86
2022/04/26 05:48:21;;;;;;;;;;;12.10;73.00;;;11.10;nan;96028.13;4239941;33;20037;-87
2022/04/26 05:50:54;;;;;;;;;;;12.20;73.00;;;11.13;nan;96030.31;4264404;33;20096;-86
2022/04/26 05:53:22;;;;;;;;;;;12.20;72.90;;;11.14;nan;96034.69;4239735;33;19909;-87
2022/04/26 05:55:51;;;;;;;;;;;12.20;72.90;;;11.13;nan;96030.31;4238400;33;19910;-86
2022/04/26 05:58:20;;;;;;;;;;;12.20;72.80;;;11.14;nan;96029.22;4239006;33;19902;-87
2022/04/26 06:00:48;;;;;;;;;;;12.20;72.90;;;11.15;nan;96030.84;4239798;33;19902;-87
2022/04/26 06:03:17;;;;;;;;;;;12.20;72.90;;;11.14;nan;96029.22;4216192;33;20106;-87
2022/04/26 06:05:45;;;;;;;;;;;12.20;73.00;;;11.16;nan;96016.88;4239711;33;20074;-87
2022/04/26 06:08:15;;;;;;;;;;;12.20;73.00;;;11.18;nan;96027.53;4215608;33;20240;-87
2022/04/26 06:10:44;;;;;;;;;;;12.20;73.00;;;11.18;nan;96025.63;4239808;33;19993;-87
2022/04/26 06:13:15;;;;;;;;;;;12.20;73.00;;;11.22;nan;96020.41;4239642;33;20056;-88
2022/04/26 06:15:44;;;;;;;;;;;12.20;73.10;;;11.23;nan;96019.31;4239554;33;19902;-88
2022/04/26 06:18:12;;;;;;;;;;;12.20;73.00;;;11.23;nan;96011.09;4239150;33;19961;-87
2022/04/26 06:20:41;;;;;;;;;;;12.30;73.20;;;11.28;nan;96021.22;4216057;33;19913;-88
2022/04/26 06:23:10;;;;;;;;;;;12.30;73.20;;;11.30;nan;96008.06;4216046;33;19902;-87
2022/04/26 06:25:40;;;;;;;;;;;12.30;73.10;;;11.30;nan;96022.56;4238709;33;20073;-88
2022/04/26 06:28:09;;;;;;;;;;;12.30;73.20;;;11.32;nan;96017.63;4215763;33;20028;-88
2022/04/26 06:30:39;;;;;;;;;;;12.30;73.00;;;11.33;nan;96024.75;4235103;33;20382;-88
2022/04/26 06:33:07;;;;;;;;;;;12.30;73.00;;;11.33;nan;96024.75;4267960;33;19953;-87
2022/04/26 06:35:36;;;;;;;;;;;12.40;73.20;;;11.34;nan;96018.19;4268036;33;19967;-87
2022/04/26 06:38:05;;;;;;;;;;;12.30;73.10;;;11.36;nan;96021.47;4266750;33;20062;-87
2022/04/26 06:40:34;;;;;;;;;;;12.30;73.20;;;11.38;nan;96023.09;4291513;33;19979;-87
2022/04/26 06:43:04;;;;;;;;;;;12.30;73.10;;;11.35;nan;96014.34;4243364;33;20011;-87
2022/04/26 06:45:33;;;;;;;;;;;12.40;73.10;;;11.39;nan;96022.00;4242560;33;20058;-88
2022/04/26 06:48:02;;;;;;;;;;;12.40;73.20;;;11.39;nan;96020.06;4266818;33;19908;-87
2022/04/26 06:50:31;;;;;;;;;;;12.40;73.20;;;11.40;nan;96021.72;4243165;33;19908;-87
2022/04/26 06:53:02;;;;;;;;;;;12.40;73.10;;;11.41;nan;96028.84;4267553;33;20232;-87
2022/04/26 06:55:31;;;;;;;;;;;12.40;73.10;;;11.42;nan;96030.47;4274623;33;19901;-88
2022/04/26 06:58:00;;;;;;;;;;;12.40;73.10;;;11.44;nan;96028.28;4199462;33;19958;-88
2022/04/26 07:00:30;;;;;;;;;;;12.40;73.10;;;11.42;nan;96016.78;4210201;33;19993;-87
2022/04/26 07:02:59;;;;;;;;;;;12.40;73.00;;;11.45;nan;96029.09;4204455;33;20007;-87
2022/04/26 07:05:27;;;;;;;;;;;12.40;72.90;;;11.47;nan;96032.38;4248470;33;19902;-88
2022/04/26 07:07:56;;;;;;;;;;;12.40;72.90;;;11.46;nan;96028.00;4231974;33;19977;-87
2022/04/26 07:10:28;;;;;;;;;;;12.40;72.90;;;11.47;nan;96030.47;4268068;33;20454;-88
2022/04/26 07:12:57;;;;;;;;;;;12.40;72.80;;;11.47;nan;96027.72;4244141;33;20120;-88
2022/04/26 07:15:26;;;;;;;;;;;12.50;72.90;;;11.50;nan;96031.81;4267803;33;19989;-88
2022/04/26 07:17:56;;;;;;;;;;;12.50;72.90;;;11.52;nan;96035.09;4243449;33;20224;-88
2022/04/26 07:20:26;;;;;;;;;;;12.50;72.90;;;11.53;nan;96036.75;4267738;33;20459;-89
2022/04/26 07:22:55;;;;;;;;;;;12.50;72.90;;;11.56;nan;96038.09;4243983;33;19909;-86
2022/04/26 07:25:24;;;;;;;;;;;12.50;72.80;;;11.57;nan;96035.06;4243610;33;19903;-88
2022/04/26 07:28:00;;;;;;;;;;;12.50;72.80;;;11.57;nan;96035.06;4243416;33;19946;-88
2022/04/26 07:30:35;;;;;;;;;;;12.50;72.70;;;11.60;nan;96036.44;4243776;33;20318;-88
2022/04/26 07:36:15;;;;;;;;;;;12.50;72.70;;;11.64;nan;96043.00;4193723;33;19917;-88
2022/04/26 07:38:47;;;;;;;;;;;12.60;72.60;;;11.63;nan;96036.69;4262498;33;19966;-88
2022/04/26 07:41:16;;;;;;;;;;;12.60;72.60;;;11.63;nan;96044.94;4243806;33;19979;-88
2022/04/26 07:43:45;;;;;;;;;;;12.60;72.60;;;11.64;nan;96041.09;4292678;33;19902;-88
2022/04/26 07:46:15;;;;;;;;;;;12.60;72.60;;;11.66;nan;96046.28;4246712;33;19906;-88
2022/04/26 07:48:45;;;;;;;;;;;12.60;72.50;;;11.68;nan;96055.03;4212927;33;20037;-87
2022/04/26 07:51:14;;;;;;;;;;;12.60;72.50;;;11.72;nan;96049.81;4215220;33;20144;-88
2022/04/26 07:53:45;;;;;;;;;;;12.60;72.50;;;11.66;nan;96058.09;4238787;33;20064;-88
2022/04/26 07:56:14;;;;;;;;;;;12.60;72.40;;;11.61;nan;96054.53;4238412;33;20068;-88
2022/04/26 07:58:43;;;;;;;;;;;12.60;72.50;;;11.61;nan;96062.78;4215161;33;19917;-88
2022/04/26 08:01:11;;;;;;;;;;;12.60;72.60;;;11.62;nan;96059.72;4215280;33;20213;-89
2022/04/26 08:03:40;;;;;;;;;;;12.60;72.70;;;11.63;nan;96066.84;4238225;33;20204;-89
2022/04/26 08:06:10;;;;;;;;;;;12.60;72.70;;;11.66;nan;96065.47;4214127;33;20050;-88
2022/04/26 08:09:39;;;;;;;;;;;12.60;72.80;;;11.63;nan;96052.31;4238005;33;20051;-89
2022/04/26 08:15:34;;;;;;;;;;;12.60;72.70;;;11.61;nan;96069.06;4238910;33;19901;-87
2022/04/26 08:18:03;;;;;;;;;;;12.60;72.80;;;11.62;nan;96073.44;4266271;33;20081;-88
2022/04/26 08:20:32;;;;;;;;;;;12.60;72.90;;;11.60;nan;96067.41;4243507;33;19901;-88
2022/04/26 08:23:03;;;;;;;;;;;12.60;72.90;;;11.62;nan;96067.97;4243295;33;19901;-88
2022/04/26 08:28:18;;;;;;;;;;;12.60;73.00;;;11.61;nan;96066.31;4186154;33;23140;-88
2022/04/26 08:30:47;;;;;;;;;;;12.60;72.90;;;11.59;nan;96065.78;4210337;33;20210;-89
2022/04/26 08:33:16;;;;;;;;;;;12.60;73.00;;;11.60;nan;96069.34;4210007;33;20045;-89
2022/04/26 08:35:44;;;;;;;;;;;12.60;73.00;;;11.60;nan;96070.16;4229531;33;19902;-88
2022/04/26 08:38:14;;;;;;;;;;;12.60;72.80;;;11.58;nan;96072.34;4214359;33;20248;-87
2022/04/26 08:40:43;;;;;;;;;;;12.60;72.90;;;11.57;nan;96065.22;4238046;33;19902;-88
2022/04/26 08:43:12;;;;;;;;;;;12.50;72.90;;;11.55;nan;96061.13;4215024;33;20151;-88
2022/04/26 08:45:41;;;;;;;;;;;12.50;73.00;;;11.55;nan;96067.44;4214761;33;19909;-89
2022/04/26 08:51:53;;;;;;;;;;;12.50;72.90;;;11.54;nan;96070.47;4214609;33;19909;-88
2022/04/26 08:54:30;;;;;;;;;;;12.50;72.90;;;11.50;nan;96071.00;4142996;34;19904;-87
2022/04/26 08:57:30;;;;;;;;;;;;;;;;;;;;;
2022/04/26 09:03:30;;;;;;;;;;;12.40;74.00;;;11.44;nan;96065.81;4186205;33;20105;-87
2022/04/26 09:06:05;;;;;;;;;;;12.40;73.20;;;11.43;nan;96069.66;4237859;33;19924;-88
2022/04/26 09:08:34;;;;;;;;;;;12.40;73.30;;;11.43;nan;96073.25;4266623;33;19901;-88
2022/04/26 09:11:04;;;;;;;;;;;12.40;73.30;;;11.43;nan;96075.16;4266562;33;20212;-88
2022/04/26 09:13:41;;;;;;;;;;;12.40;73.30;;;11.43;nan;96075.16;4290587;33;20077;-88
2022/04/26 09:16:17;;;;;;;;;;;12.40;73.40;;;11.41;nan;96071.88;4242135;33;19969;-88
2022/04/26 09:18:54;;;;;;;;;;;12.40;73.30;;;11.42;nan;96081.75;4242661;33;19924;-89
2022/04/26 09:21:27;;;;;;;;;;;12.40;73.30;;;11.41;nan;96074.63;4242652;33;19901;-89
2022/04/26 09:24:00;;;;;;;;;;;12.40;73.40;;;11.40;nan;96078.47;4262533;33;20040;-89
2022/04/26 09:26:35;;;;;;;;;;;12.40;73.40;;;11.36;nan;96076.28;4237297;33;20144;-88
2022/04/26 09:29:06;;;;;;;;;;;12.40;73.50;;;11.33;nan;96076.81;4209447;33;19989;-89
2022/04/26 09:31:37;;;;;;;;;;;12.30;73.50;;;11.29;nan;96081.25;4232962;33;20408;-89
2022/04/26 09:34:11;;;;;;;;;;;12.30;73.60;;;11.27;nan;96077.97;4209572;33;20440;-89
2022/04/26 09:36:44;;;;;;;;;;;12.30;73.80;;;11.24;nan;96070.28;4185835;33;19902;-89
2022/04/26 09:39:17;;;;;;;;;;;12.30;73.90;;;11.23;nan;96073.31;4186563;33;19902;-88
2022/04/26 09:41:51;;;;;;;;;;;12.30;74.10;;;11.23;nan;96065.91;4186187;33;19902;-88
2022/04/26 09:44:30;;;;;;;;;;;12.20;74.00;;;11.20;nan;96061.81;4234082;33;19903;-89
2022/04/26 09:47:09;;;;;;;;;;;12.20;74.10;;;11.20;nan;96066.44;4207261;33;20178;-88
2022/04/26 09:49:40;;;;;;;;;;;12.20;74.20;;;11.20;nan;96063.72;4185867;33;19937;-89
2022/04/26 09:52:13;;;;;;;;;;;12.20;74.10;;;11.20;nan;96071.94;4209187;33;20170;-89
2022/04/26 09:59:59;;;;;;;;;;;12.20;74.30;;;11.19;nan;96071.13;3941576;36;19930;-88
2022/04/26 10:02:31;;;;;;;;;;;12.20;74.30;;;11.20;nan;96070.03;4060112;34;19911;-87
2022/04/26 10:05:04;;;;;;;;;;;12.20;74.30;;;11.20;nan;96060.97;4205691;33;20201;-88
2022/04/26 10:07:36;;;;;;;;;;;12.20;74.30;;;11.20;nan;96074.66;4211079;33;20264;-87
2022/04/26 10:10:06;;;;;;;;;;;12.20;74.20;;;11.17;nan;96067.84;4211753;33;19903;-88
2022/04/26 10:12:35;;;;;;;;;;;12.20;74.20;;;11.19;nan;96064.81;4213852;33;20011;-88
2022/04/26 10:15:07;;;;;;;;;;;12.20;74.30;;;11.17;nan;96061.50;4287803;33;20141;-88
2022/04/26 10:17:35;;;;;;;;;;;12.20;74.40;;;11.17;nan;96067.00;4239168;33;19927;-88
2022/04/26 10:20:06;;;;;;;;;;;12.20;74.40;;;11.14;nan;96068.38;4263318;33;20225;-88
2022/04/26 10:22:56;;;;;;;;;;;12.20;74.40;;;11.13;nan;96060.44;4239835;33;20117;-88
2022/04/26 10:25:26;;;;;;;;;;;12.20;74.60;;;11.11;nan;96062.66;4263448;33;19901;-88
2022/04/26 10:28:26;;;;;;;;;;;12.10;74.60;;;11.10;nan;96069.22;4239182;33;19902;-88
2022/04/26 10:35:41;;;;;;;;;;;;;;;;;;;;;
2022/04/26 10:38:42;;;;;;;;;;;12.10;74.90;;;11.08;nan;96057.72;4233921;33;19902;-88
2022/04/26 10:41:11;;;;;;;;;;;12.10;75.00;;;11.10;nan;96058.25;4211255;33;20044;-89
2022/04/26 10:44:54;;;;;;;;;;;12.10;74.90;;;11.09;nan;96056.63;4211307;33;20089;-89
2022/04/26 10:47:58;;;;;;;;;;;12.10;74.90;;;11.11;nan;96063.44;4177685;34;20387;-89
2022/04/26 10:50:33;;;;;;;;;;;12.10;75.60;;;11.11;nan;96062.66;4132112;34;19910;-87
2022/04/26 10:53:01;;;;;;;;;;;12.10;74.80;;;11.09;nan;96062.09;4228895;33;19950;-88
2022/04/26 10:55:30;;;;;;;;;;;12.10;74.80;;;11.10;nan;96064.53;4234500;33;19902;-88
2022/04/26 10:57:59;;;;;;;;;;;12.10;74.90;;;11.10;nan;96061.00;4210545;33;19903;-88
2022/04/26 11:00:37;;;;;;;;;;;12.10;74.90;;;11.10;nan;96066.47;4234530;33;19984;-88
2022/04/26 11:03:11;;;;;;;;;;;12.10;74.90;;;11.10;nan;96056.31;4210933;33;19909;-88
2022/04/26 11:05:41;;;;;;;;;;;12.10;74.90;;;11.11;nan;96062.66;4234366;33;19902;-88
2022/04/26 11:08:34;;;;;;;;;;;12.10;74.90;;;11.09;nan;96054.72;4210519;33;19990;-88
2022/04/26 11:11:11;;;;;;;;;;;12.10;74.90;;;11.08;nan;96061.28;4210018;33;20018;-88
2022/04/26 11:14:03;;;;;;;;;;;12.10;74.90;;;11.05;nan;96057.16;4210895;33;19902;-86
2022/04/26 11:16:32;;;;;;;;;;;12.10;75.00;;;11.07;nan;96061.53;4233799;33;20172;-87
2022/04/26 11:19:01;;;;;;;;;;;12.10;75.10;;;11.07;nan;96059.66;4238965;33;20133;-88
2022/04/26 11:28:59;;;;;;;;;;;12.10;75.00;;;11.08;nan;96055.81;4238861;33;20069;-89
2022/04/26 11:31:40;;;;;;;;;;;12.10;75.00;;;11.11;nan;96051.69;4214602;33;20109;-89
2022/04/26 11:37:33;;;;;;;;;;;12.10;75.00;;;11.09;nan;96057.44;4237354;33;20076;-87
2022/04/26 11:40:12;;;;;;;;;;;;;;;;;;;;;
2022/04/26 11:43:06;;;;;;;;;;;12.10;75.00;;;11.13;nan;96044.00;4237938;33;19902;-87
2022/04/26 11:45:36;;;;;;;;;;;12.10;74.90;;;11.12;nan;96053.31;4253004;33;19906;-89
2022/04/26 11:48:08;;;;;;;;;;;12.20;75.00;;;11.12;nan;96043.19;4237975;33;19909;-89
2022/04/26 11:50:40;;;;;;;;;;;12.20;75.00;;;11.14;nan;96034.69;4237892;33;20026;-87
2022/04/26 11:53:51;;;;;;;;;;;12.20;75.10;;;11.14;nan;96042.91;4237403;33;20068;-88
2022/04/26 11:56:21;;;;;;;;;;;12.20;74.90;;;11.12;nan;96047.84;4284864;33;20060;-89
2022/04/26 12:03:07;;;;;;;;;;;12.20;75.10;;;11.12;nan;96037.69;4202562;33;20233;-89
2022/04/26 12:05:39;;;;;;;;;;;12.10;75.10;;;11.11;nan;96027.84;4186096;33;20447;-88
2022/04/26 12:08:12;;;;;;;;;;;12.20;75.00;;;11.13;nan;96027.56;4208901;33;20129;-88
2022/04/26 12:10:40;;;;;;;;;;;12.20;75.10;;;11.13;nan;96033.84;4185983;33;20237;-87
2022/04/26 12:13:09;;;;;;;;;;;12.20;75.10;;;11.12;nan;96037.69;4209783;33;20210;-88
2022/04/26 12:15:39;;;;;;;;;;;12.20;75.20;;;11.14;nan;96029.22;4186929;33;20050;-88
2022/04/26 12:18:13;;;;;;;;;;;12.20;75.20;;;11.12;nan;96025.94;4209091;33;20145;-87
2022/04/26 12:21:02;;;;;;;;;;;12.20;75.20;;;11.16;nan;96013.31;4210438;33;20197;-87
2022/04/26 12:23:31;;;;;;;;;;;12.20;75.20;;;11.13;nan;96002.91;4186488;33;20034;-88
2022/04/26 12:26:03;;;;;;;;;;;12.20;75.20;;;11.15;nan;96015.22;4186447;33;20214;-88
2022/04/26 12:28:31;;;;;;;;;;;12.20;75.10;;;11.13;nan;96000.19;4210178;33;19902;-87
2022/04/26 12:31:01;;;;;;;;;;;12.20;75.20;;;11.12;nan;96007.56;4186767;33;19903;-87
2022/04/26 12:33:34;;;;;;;;;;;12.20;75.20;;;11.12;nan;95990.31;4209799;33;20092;-87
2022/04/26 12:36:04;;;;;;;;;;;12.20;75.20;;;11.15;nan;96006.19;4209363;33;20122;-88
2022/04/26 12:38:45;;;;;;;;;;;12.20;75.20;;;11.12;nan;95987.56;4209975;33;20214;-88
2022/04/26 12:41:14;;;;;;;;;;;12.10;75.30;;;11.11;nan;95999.63;4186753;33;20209;-87
2022/04/26 12:43:43;;;;;;;;;;;12.10;75.30;;;11.11;nan;95996.88;4186641;33;19902;-88
2022/04/26 12:46:11;;;;;;;;;;;12.10;75.40;;;11.08;nan;95979.09;4209641;33;19902;-87
2022/04/26 12:51:54;;;;;;;;;;;12.10;75.50;;;11.10;nan;95989.78;4186637;33;19910;-88
2022/04/26 12:54:23;;;;;;;;;;;12.10;75.50;;;11.09;nan;95983.47;4209740;33;19902;-88
2022/04/26 12:56:59;;;;;;;;;;;12.10;75.50;;;11.10;nan;95989.78;4232871;33;20009;-87
2022/04/26 12:59:36;;;;;;;;;;;12.10;75.50;;;11.09;nan;95988.97;4186631;33;19909;-88
2022/04/26 13:02:06;;;;;;;;;;;12.10;75.50;;;11.10;nan;95973.34;4209874;33;19938;-88
2022/04/26 13:04:37;;;;;;;;;;;12.10;75.50;;;11.12;nan;95985.63;4186563;33;19909;-89
2022/04/26 13:07:06;;;;;;;;;;;12.10;75.50;;;11.14;nan;95979.91;4209202;33;19902;-88
2022/04/26 13:09:35;;;;;;;;;;;12.10;75.50;;;11.15;nan;95971.41;4185998;33;19909;-87
2022/04/26 13:12:05;;;;;;;;;;;12.20;75.40;;;11.15;nan;95973.31;4246281;33;19909;-88
2022/04/26 13:14:34;;;;;;;;;;;12.20;76.30;;;11.16;nan;95972.22;4237855;33;19902;-88
2022/04/26 13:17:03;;;;;;;;;;;12.20;75.30;;;11.15;nan;95973.31;4237384;33;20129;-87
2022/04/26 13:19:32;;;;;;;;;;;12.20;75.40;;;11.13;nan;95978.25;4261593;33;20448;-89
2022/04/26 13:22:02;;;;;;;;;;;12.20;75.40;;;11.13;nan;95975.53;4261588;33;19902;-88
2022/04/26 13:24:31;;;;;;;;;;;12.20;75.40;;;11.12;nan;95971.13;4261599;33;19917;-88
2022/04/26 13:27:08;;;;;;;;;;;12.20;75.50;;;11.11;nan;95964.81;4237283;33;19902;-88
2022/04/26 13:29:40;;;;;;;;;;;12.10;75.50;;;11.12;nan;95968.41;4237667;33;20054;-89
2022/04/26 13:32:10;;;;;;;;;;;12.10;75.60;;;11.12;nan;95968.41;4237739;33;19902;-87
2022/04/26 13:34:38;;;;;;;;;;;12.10;75.60;;;11.12;nan;95966.47;4262554;33;20124;-88
2022/04/26 13:37:09;;;;;;;;;;;12.20;75.60;;;11.14;nan;95963.47;4239747;33;20467;-88
2022/04/26 13:39:39;;;;;;;;;;;12.20;75.70;;;11.15;nan;95970.59;4288285;33;20136;-88
2022/04/26 13:42:09;;;;;;;;;;;12.20;75.60;;;11.15;nan;95971.41;4264018;33;20098;-88
2022/04/26 13:44:38;;;;;;;;;;;12.20;75.60;;;11.16;nan;95964.00;4239888;33;19993;-88
2022/04/26 13:47:08;;;;;;;;;;;12.20;75.60;;;11.14;nan;95963.47;4239561;33;19902;-88
2022/04/26 13:49:37;;;;;;;;;;;12.20;75.50;;;11.14;nan;95958.78;4239932;33;19911;-88
2022/04/26 13:52:05;;;;;;;;;;;12.20;75.50;;;11.16;nan;95972.22;4239893;33;19910;-87
2022/04/26 13:54:36;;;;;;;;;;;12.20;75.60;;;11.14;nan;95968.94;4263807;33;19908;-88
2022/04/26 13:57:06;;;;;;;;;;;12.20;75.60;;;11.13;nan;95964.56;4239499;33;20144;-88
2022/04/26 13:59:35;;;;;;;;;;;12.20;75.70;;;11.13;nan;95961.81;4239854;33;20123;-88
2022/04/26 14:02:04;;;;;;;;;;;12.20;75.70;;;11.12;nan;95965.66;4263688;33;20112;-88
2022/04/26 14:04:33;;;;;;;;;;;12.20;75.70;;;11.13;nan;95956.34;4263667;33;19909;-88
2022/04/26 14:07:01;;;;;;;;;;;12.20;75.70;;;11.12;nan;95960.19;4239462;33;20246;-87
2022/04/26 14:09:30;;;;;;;;;;;12.20;75.80;;;11.12;nan;95960.19;4263650;33;19901;-87
2022/04/26 14:12:00;;;;;;;;;;;12.20;75.80;;;11.13;nan;95961.81;4263615;33;19909;-87
2022/04/26 14:22:46;;;;;;;;;;;12.20;75.70;;;11.15;nan;95959.63;4263624;33;19902;-89
2022/04/26 14:25:15;;;;;;;;;;;12.20;75.70;;;11.15;nan;95959.63;4239489;33;19969;-89
2022/04/26 14:27:49;;;;;;;;;;;12.20;75.70;;;11.15;nan;95954.94;4239127;33;20057;-89
2022/04/26 14:30:17;;;;;;;;;;;12.20;75.70;;;11.16;nan;95961.28;4239458;33;20040;-87
2022/04/26 14:32:46;;;;;;;;;;;12.20;75.70;;;11.15;nan;95959.63;4263449;33;20224;-88
2022/04/26 14:35:15;;;;;;;;;;;12.20;75.70;;;11.16;nan;95962.06;4263272;33;20145;-87
2022/04/26 14:37:43;;;;;;;;;;;12.20;75.70;;;11.16;nan;95961.28;4287206;33;20236;-88
2022/04/26 14:40:13;;;;;;;;;;;12.20;75.70;;;11.17;nan;95960.97;4264259;33;20098;-87
2022/04/26 14:42:45;;;;;;;;;;;12.20;75.70;;;11.16;nan;95964.81;4263339;33;19996;-87
2022/04/26 14:45:15;;;;;;;;;;;12.20;75.70;;;11.16;nan;95953.06;4239168;33;20657;-89
2022/04/26 14:47:43;;;;;;;;;;;12.20;75.60;;;11.18;nan;95957.13;4234165;33;20091;-87
2022/04/26 14:50:13;;;;;;;;;;;12.20;75.60;;;11.17;nan;95957.41;4216069;33;20135;-88
2022/04/26 14:52:42;;;;;;;;;;;12.20;75.60;;;11.20;nan;95956.84;4215886;33;20180;-87
2022/04/26 14:55:11;;;;;;;;;;;12.20;75.60;;;11.20;nan;95954.94;4239275;33;20038;-88
2022/04/26 14:57:40;;;;;;;;;;;12.20;75.60;;;11.21;nan;95958.50;4263898;33;20130;-87
2022/04/26 15:00:10;;;;;;;;;;;12.20;75.60;;;11.19;nan;95949.72;4215909;33;19902;-87
2022/04/26 15:02:40;;;;;;;;;;;12.20;75.60;;;11.18;nan;95943.44;4215811;33;19901;-88
2022/04/26 15:05:09;;;;;;;;;;;12.20;75.70;;;11.19;nan;95949.72;4215678;33;19909;-87
2022/04/26 15:10:24;;;;;;;;;;;12.20;75.70;;;11.19;nan;95956.03;4215667;33;19902;-88
2022/04/26 15:18:26;;;;;;;;;;;12.20;75.70;;;11.19;nan;95957.94;4215654;33;19901;-89
2022/04/26 15:20:55;;;;;;;;;;;12.20;75.70;;;11.18;nan;95948.91;4262867;33;19901;-88
2022/04/26 15:23:23;;;;;;;;;;;12.20;75.70;;;11.18;nan;95959.03;4262500;33;19960;-88
2022/04/26 15:25:53;;;;;;;;;;;12.20;75.70;;;11.17;nan;95954.66;4215368;33;19946;-88
2022/04/26 15:28:22;;;;;;;;;;;12.20;75.80;;;11.18;nan;95954.41;4215208;33;19901;-88
2022/04/26 15:31:29;;;;;;;;;;;12.20;75.80;;;11.16;nan;95958.53;4263741;33;20466;-86
2022/04/26 15:33:59;;;;;;;;;;;12.20;75.70;;;11.18;nan;95948.91;4223264;33;20154;-88
2022/04/26 15:36:27;;;;;;;;;;;12.20;75.80;;;11.18;nan;95945.34;4237842;33;19922;-88
2022/04/26 15:38:58;;;;;;;;;;;12.20;75.80;;;11.18;nan;95948.09;4215302;33;20141;-88
2022/04/26 15:41:27;;;;;;;;;;;12.20;75.80;;;11.15;nan;95949.47;4238900;33;20236;-88
2022/04/26 15:43:55;;;;;;;;;;;12.20;75.80;;;11.16;nan;95950.31;4262479;33;19909;-87
2022/04/26 15:46:24;;;;;;;;;;;12.20;75.90;;;11.14;nan;95941.53;4214463;33;20114;-88
2022/04/26 15:48:53;;;;;;;;;;;12.20;75.90;;;11.16;nan;95955.78;4262265;33;20224;-88
2022/04/26 15:51:24;;;;;;;;;;;12.20;75.90;;;11.16;nan;95953.06;4238408;33;19901;-87
2022/04/26 15:53:53;;;;;;;;;;;12.20;76.00;;;11.16;nan;95953.84;4215314;33;19909;-88
2022/04/26 15:56:22;;;;;;;;;;;12.20;76.10;;;11.14;nan;95949.78;4214267;33;20244;-88
2022/04/26 15:58:50;;;;;;;;;;;12.20;76.10;;;11.14;nan;95952.50;4214825;33;19909;-86
2022/04/26 16:01:19;;;;;;;;;;;12.20;76.10;;;11.15;nan;95951.41;4238425;33;20129;-88
2022/04/26 16:03:48;;;;;;;;;;;12.20;76.10;;;11.12;nan;95949.22;4214431;33;19902;-87
2022/04/26 16:06:16;;;;;;;;;;;12.20;76.20;;;11.12;nan;95951.97;4213508;33;20129;-88
2022/04/26 16:08:46;;;;;;;;;;;12.20;76.20;;;11.14;nan;95957.97;4214201;33;20237;-88
2022/04/26 16:22:20;;;;;;;;;;;12.10;76.30;;;11.12;nan;95961.00;4214867;33;19909;-88
2022/04/26 16:24:50;;;;;;;;;;;12.10;76.30;;;11.11;nan;95964.00;4214962;33;19946;-88
2022/04/26 16:27:19;;;;;;;;;;;12.10;76.30;;;11.10;nan;95965.13;4214043;33;19905;-88
2022/04/26 16:29:47;;;;;;;;;;;12.10;76.40;;;11.12;nan;95965.66;4215081;33;20124;-88
2022/04/26 16:32:16;;;;;;;;;;;12.10;76.40;;;11.11;nan;95969.50;4262097;33;19902;-88
2022/04/26 16:34:44;;;;;;;;;;;12.10;76.50;;;11.10;nan;95967.84;4238330;33;20212;-88
2022/04/26 16:37:13;;;;;;;;;;;12.10;76.50;;;11.08;nan;95962.66;4214147;33;19902;-88
2022/04/26 16:39:42;;;;;;;;;;;12.10;76.50;;;11.09;nan;95971.69;4214663;33;19901;-88
2022/04/26 16:42:12;;;;;;;;;;;12.10;76.60;;;11.10;nan;95973.34;4214890;33;19924;-88
2022/04/26 16:44:40;;;;;;;;;;;12.10;76.50;;;11.10;nan;95976.06;4214631;33;19925;-88
2022/04/26 16:47:10;;;;;;;;;;;12.10;76.50;;;11.09;nan;95975.28;4213237;33;19924;-88
2022/04/26 16:49:39;;;;;;;;;;;12.10;76.60;;;11.09;nan;95982.66;4209528;33;20240;-88